createdAt,value
2018-09-14T00:01:45.370Z,63.63
2018-09-14T00:04:13.522Z,63.61
2018-09-14T00:06:41.766Z,63.23
2018-09-14T00:09:14.186Z,63.22
2018-09-14T00:11:42.886Z,63.26
2018-09-14T00:14:11.199Z,63.18
2018-09-14T00:16:39.390Z,63.64
2018-09-14T00:19:07.667Z,63.66
2018-09-14T00:21:36.099Z,63.40
2018-09-14T00:24:04.339Z,63.51
2018-09-14T00:26:32.570Z,63.60
2018-09-14T00:29:00.770Z,63.49
2018-09-14T00:31:29.011Z,63.27
2018-09-14T00:33:57.239Z,63.20
2018-09-14T00:36:25.426Z,63.28
2018-09-14T00:38:53.665Z,63.55
2018-09-14T00:41:21.995Z,63.68
2018-09-14T00:43:50.316Z,63.36
2018-09-14T00:46:18.466Z,63.35
2018-09-14T00:48:46.759Z,63.33
2018-09-14T00:51:15.006Z,63.41
2018-09-14T00:53:43.302Z,63.30
2018-09-14T00:56:11.527Z,63.74
2018-09-14T00:58:39.706Z,63.34
2018-09-14T01:01:07.986Z,63.26
2018-09-14T01:03:36.170Z,63.26
2018-09-14T01:06:04.446Z,63.71
2018-09-14T01:08:32.667Z,63.32
2018-09-14T01:11:00.856Z,63.26
2018-09-14T01:16:19.666Z,63.21
2018-09-14T01:18:47.881Z,63.68
2018-09-14T01:21:16.095Z,63.47
2018-09-14T01:23:44.302Z,63.60
2018-09-14T01:26:12.542Z,63.61
2018-09-14T01:28:40.770Z,63.51
2018-09-14T01:31:08.966Z,63.44
2018-09-14T01:33:37.146Z,63.19
2018-09-14T01:36:12.299Z,63.31
2018-09-14T01:38:41.202Z,63.39
2018-09-14T01:41:09.870Z,63.22
2018-09-14T01:43:38.187Z,63.55
2018-09-14T01:46:06.627Z,63.19
2018-09-14T01:48:34.852Z,63.13
2018-09-14T01:51:03.080Z,63.42
2018-09-14T01:53:31.296Z,63.44
2018-09-14T01:55:59.511Z,63.13
2018-09-14T01:58:27.702Z,63.00
2018-09-14T02:00:55.918Z,63.43
2018-09-14T02:03:24.276Z,63.11
2018-09-14T02:05:52.462Z,63.22
2018-09-14T02:08:20.667Z,63.08
2018-09-14T02:10:48.914Z,63.40
2018-09-14T02:13:17.171Z,63.08
2018-09-14T02:15:45.395Z,63.00
2018-09-14T02:18:13.623Z,63.20
2018-09-14T02:20:41.839Z,63.46
2018-09-14T02:23:10.095Z,63.27
2018-09-14T02:25:38.323Z,62.93
2018-09-14T02:28:06.747Z,62.97
2018-09-14T02:30:34.946Z,63.20
2018-09-14T02:33:03.246Z,63.00
2018-09-14T02:35:31.445Z,63.35
2018-09-14T02:37:59.687Z,63.31
2018-09-14T02:40:28.018Z,63.07
2018-09-14T02:42:56.334Z,62.99
2018-09-14T02:45:24.531Z,63.06
2018-09-14T02:47:52.726Z,63.45
2018-09-14T02:50:20.970Z,63.24
2018-09-14T02:52:49.235Z,63.70
2018-09-14T02:55:17.512Z,63.48
2018-09-14T02:57:45.707Z,63.47
2018-09-14T03:00:14.049Z,63.50
2018-09-14T03:02:42.212Z,63.58
2018-09-14T03:05:10.891Z,63.34
2018-09-14T03:07:39.092Z,63.72
2018-09-14T03:10:07.348Z,63.64
2018-09-14T03:12:35.528Z,63.67
2018-09-14T03:15:03.767Z,63.21
2018-09-14T03:17:32.003Z,63.53
2018-09-14T03:20:00.206Z,63.12
2018-09-14T03:22:28.532Z,63.44
2018-09-14T03:24:56.821Z,63.00
2018-09-14T03:27:25.011Z,63.11
2018-09-14T03:29:53.251Z,63.12
2018-09-14T03:32:21.568Z,62.95
2018-09-14T03:34:49.724Z,63.38
2018-09-14T03:37:17.974Z,63.28
2018-09-14T03:39:46.267Z,63.19
2018-09-14T03:42:14.479Z,62.93
2018-09-14T03:44:42.776Z,62.93
2018-09-14T03:47:11.088Z,62.84
2018-09-14T03:49:39.426Z,63.00
2018-09-14T03:52:07.736Z,62.79
2018-09-14T03:54:35.938Z,62.79
2018-09-14T03:57:04.943Z,63.14
2018-09-14T03:59:35.286Z,62.74
2018-09-14T04:02:03.985Z,62.74
2018-09-14T04:04:32.203Z,63.20
2018-09-14T04:07:00.624Z,63.23
2018-09-14T04:09:29.163Z,62.95
2018-09-14T04:11:57.452Z,63.23
2018-09-14T04:14:25.754Z,63.41
2018-09-14T04:16:53.962Z,63.34
2018-09-14T04:19:22.303Z,62.91
2018-09-14T04:21:50.627Z,63.18
2018-09-14T04:24:18.891Z,62.92
2018-09-14T04:26:53.801Z,63.12
2018-09-14T04:29:22.038Z,63.26
2018-09-14T04:31:50.338Z,62.97
2018-09-14T04:34:18.611Z,63.28
2018-09-14T04:36:46.827Z,62.95
2018-09-14T04:39:15.035Z,63.39
2018-09-14T04:41:43.311Z,62.92
2018-09-14T04:44:11.597Z,62.88
2018-09-14T04:46:39.788Z,62.87
2018-09-14T04:49:08.087Z,63.20
2018-09-14T04:51:36.359Z,63.16
2018-09-14T04:54:04.602Z,62.92
2018-09-14T04:56:32.847Z,62.79
2018-09-14T04:59:01.186Z,62.82
2018-09-14T05:01:29.450Z,63.22
2018-09-14T05:03:57.732Z,63.18
2018-09-14T05:06:25.969Z,62.77
2018-09-14T05:08:54.265Z,62.81
2018-09-14T05:11:22.519Z,63.32
2018-09-14T05:13:50.746Z,62.74
2018-09-14T05:16:19.009Z,62.69
2018-09-14T05:18:47.266Z,62.71
2018-09-14T05:21:15.552Z,62.92
2018-09-14T05:23:43.847Z,62.70
2018-09-14T05:26:12.083Z,63.15
2018-09-14T05:28:40.331Z,63.12
2018-09-14T05:31:08.535Z,63.28
2018-09-14T05:33:37.158Z,62.91
2018-09-14T05:36:05.463Z,63.13
2018-09-14T05:38:34.048Z,62.99
2018-09-14T05:41:02.406Z,63.04
2018-09-14T05:43:30.769Z,63.15
2018-09-14T05:45:59.059Z,63.07
2018-09-14T05:48:27.325Z,62.94
2018-09-14T05:50:55.583Z,63.14
2018-09-14T05:53:23.873Z,62.90
2018-09-14T05:55:52.137Z,63.40
2018-09-14T05:58:20.361Z,63.28
2018-09-14T06:00:48.628Z,62.92
2018-09-14T06:03:16.883Z,62.81
2018-09-14T06:05:45.179Z,62.91
2018-09-14T06:08:13.453Z,63.16
2018-09-14T06:10:41.696Z,63.17
2018-09-14T06:13:09.981Z,62.73
2018-09-14T06:15:38.218Z,62.88
2018-09-14T06:18:06.810Z,63.24
2018-09-14T06:20:35.011Z,63.24
2018-09-14T06:23:03.291Z,62.75
2018-09-14T06:25:31.545Z,62.77
2018-09-14T06:27:59.785Z,62.99
2018-09-14T06:30:28.138Z,62.83
2018-09-14T06:32:56.327Z,62.73
2018-09-14T06:35:24.555Z,62.71
2018-09-14T06:37:52.814Z,62.83
2018-09-14T06:40:21.059Z,62.67
2018-09-14T06:42:49.315Z,63.05
2018-09-14T06:45:18.571Z,63.01
2018-09-14T06:47:46.850Z,62.60
2018-09-14T06:50:15.087Z,62.50
2018-09-14T06:52:43.307Z,62.95
2018-09-14T06:55:11.573Z,62.85
2018-09-14T06:57:39.877Z,62.86
2018-09-14T07:00:08.175Z,62.84
2018-09-14T07:02:36.330Z,62.85
2018-09-14T07:05:04.633Z,62.77
2018-09-14T07:07:32.860Z,62.73
2018-09-14T07:10:01.119Z,62.47
2018-09-14T07:12:29.364Z,62.75
2018-09-14T07:14:57.587Z,62.71
2018-09-14T07:17:25.843Z,62.78
2018-09-14T07:19:54.106Z,62.80
2018-09-14T07:22:22.443Z,62.83
2018-09-14T07:24:50.865Z,62.77
2018-09-14T07:27:18.964Z,62.80
2018-09-14T07:29:47.195Z,62.56
2018-09-14T07:32:15.385Z,62.33
2018-09-14T07:34:43.603Z,62.31
2018-09-14T07:37:11.911Z,62.38
2018-09-14T07:39:40.158Z,62.73
2018-09-14T07:42:08.409Z,62.71
2018-09-14T07:44:36.623Z,62.70
2018-09-14T07:47:04.904Z,62.75
2018-09-14T07:49:33.403Z,62.66
2018-09-14T07:52:01.657Z,62.48
2018-09-14T07:54:29.894Z,62.76
2018-09-14T07:56:58.103Z,62.50
2018-09-14T07:59:26.335Z,62.57
2018-09-14T08:01:54.575Z,62.75
2018-09-14T08:04:22.835Z,62.37
2018-09-14T08:06:51.035Z,62.71
2018-09-14T08:09:19.269Z,62.66
2018-09-14T08:11:47.653Z,62.69
2018-09-14T08:14:15.867Z,62.42
2018-09-14T08:16:44.063Z,62.33
2018-09-14T08:19:12.278Z,62.19
2018-09-14T08:21:40.576Z,62.23
2018-09-14T08:24:08.822Z,62.17
2018-09-14T08:26:37.139Z,62.61
2018-09-14T08:29:05.391Z,62.69
2018-09-14T08:31:33.654Z,62.14
2018-09-14T08:34:01.916Z,62.17
2018-09-14T08:36:30.150Z,62.10
2018-09-14T08:38:58.395Z,62.10
2018-09-14T08:41:26.677Z,62.50
2018-09-14T08:43:54.983Z,62.14
2018-09-14T08:46:23.245Z,62.51
2018-09-14T08:48:51.478Z,62.26
2018-09-14T08:51:19.740Z,62.46
2018-09-14T08:53:47.944Z,62.50
2018-09-14T08:56:16.171Z,62.16
2018-09-14T08:58:51.017Z,62.13
2018-09-14T09:01:19.313Z,62.48
2018-09-14T09:03:47.692Z,62.54
2018-09-14T09:06:15.886Z,62.00
2018-09-14T09:08:44.188Z,62.15
2018-09-14T09:11:12.401Z,62.43
2018-09-14T09:13:40.672Z,62.45
2018-09-14T09:16:08.913Z,62.40
2018-09-14T09:18:37.171Z,62.36
2018-09-14T09:21:05.385Z,62.05
2018-09-14T09:23:33.714Z,62.33
2018-09-14T09:26:02.051Z,61.97
2018-09-14T09:28:30.305Z,62.37
2018-09-14T09:30:58.574Z,62.22
2018-09-14T09:33:26.895Z,61.90
2018-09-14T09:35:55.157Z,62.39
2018-09-14T09:38:23.405Z,62.29
2018-09-14T09:40:51.715Z,62.33
2018-09-14T09:43:20.026Z,62.00
2018-09-14T09:45:48.249Z,62.28
2018-09-14T09:48:16.468Z,62.29
2018-09-14T09:50:44.780Z,62.09
2018-09-14T09:53:13.022Z,62.34
2018-09-14T09:55:41.223Z,61.94
2018-09-14T09:58:09.438Z,62.30
2018-09-14T10:00:46.854Z,61.83
2018-09-14T10:03:17.123Z,61.81
2018-09-14T10:05:50.665Z,61.83
2018-09-14T10:08:18.927Z,61.99
2018-09-14T10:10:47.198Z,62.23
2018-09-14T10:13:15.422Z,61.86
2018-09-14T10:15:43.713Z,62.06
2018-09-14T10:18:11.965Z,61.94
2018-09-14T10:20:40.280Z,62.20
2018-09-14T10:23:08.490Z,62.08
2018-09-14T10:25:36.720Z,62.14
2018-09-14T10:28:04.935Z,62.18
2018-09-14T10:30:33.217Z,61.84
2018-09-14T10:33:01.474Z,61.76
2018-09-14T10:35:29.707Z,61.83
2018-09-14T10:37:57.939Z,62.20
2018-09-14T10:40:26.325Z,62.22
2018-09-14T10:42:54.543Z,62.19
2018-09-14T10:45:22.818Z,62.22
2018-09-14T10:47:50.931Z,61.71
2018-09-14T10:50:19.299Z,61.77
2018-09-14T10:52:47.684Z,61.88
2018-09-14T10:55:16.024Z,61.61
2018-09-14T10:57:44.251Z,61.66
2018-09-14T11:00:12.538Z,61.64
2018-09-14T11:02:40.731Z,62.02
2018-09-14T11:05:09.034Z,61.65
2018-09-14T11:07:37.256Z,62.05
2018-09-14T11:10:05.745Z,61.62
2018-09-14T11:12:34.000Z,61.96
2018-09-14T11:15:02.191Z,61.97
2018-09-14T11:17:30.473Z,61.75
2018-09-14T11:19:58.707Z,61.62
2018-09-14T11:22:26.985Z,61.75
2018-09-14T11:24:55.298Z,61.99
2018-09-14T11:27:23.433Z,62.03
2018-09-14T11:29:51.682Z,61.57
2018-09-14T11:32:20.099Z,61.94
2018-09-14T11:34:48.359Z,61.86
2018-09-14T11:37:16.672Z,62.02
2018-09-14T11:39:44.953Z,61.54
2018-09-14T11:42:13.255Z,61.63
2018-09-14T11:44:41.543Z,61.61
2018-09-14T11:47:09.924Z,61.94
2018-09-14T11:49:38.355Z,62.01
2018-09-14T11:52:06.890Z,61.97
2018-09-14T11:54:35.147Z,61.47
2018-09-14T11:57:03.399Z,61.97
2018-09-14T11:59:31.628Z,61.65
2018-09-14T12:01:59.974Z,61.87
2018-09-14T12:04:28.340Z,61.85
2018-09-14T12:06:56.653Z,61.74
2018-09-14T12:09:24.898Z,61.58
2018-09-14T12:11:53.215Z,61.46
2018-09-14T12:14:22.717Z,61.75
2018-09-14T12:16:52.124Z,61.36
2018-09-14T12:19:20.619Z,61.76
2018-09-14T12:21:48.987Z,61.67
2018-09-14T12:24:17.458Z,61.36
2018-09-14T12:26:45.684Z,61.66
2018-09-14T12:29:16.047Z,61.33
2018-09-14T12:31:44.293Z,61.62
2018-09-14T12:34:13.050Z,61.39
2018-09-14T12:36:42.240Z,61.32
2018-09-14T12:39:10.977Z,61.43
2018-09-14T12:41:39.989Z,61.50
2018-09-14T12:44:11.808Z,61.77
2018-09-14T12:46:40.009Z,61.34
2018-09-14T12:49:08.274Z,61.52
2018-09-14T12:51:36.514Z,61.61
2018-09-14T12:54:04.737Z,61.37
2018-09-14T12:56:32.997Z,61.75
2018-09-14T12:59:03.176Z,61.77
2018-09-14T13:01:32.605Z,61.72
2018-09-14T13:04:01.947Z,61.42
2018-09-14T13:06:30.147Z,61.34
2018-09-14T13:08:58.427Z,61.75
2018-09-14T13:11:26.945Z,61.80
2018-09-14T13:13:55.170Z,61.70
2018-09-14T13:16:23.392Z,61.48
2018-09-14T13:18:51.655Z,61.41
2018-09-14T13:21:19.914Z,61.47
2018-09-14T13:23:48.192Z,61.40
2018-09-14T13:26:17.150Z,61.32
2018-09-14T13:28:45.427Z,61.84
2018-09-14T13:31:13.696Z,61.64
2018-09-14T13:33:44.077Z,61.50
2018-09-14T13:36:12.234Z,61.70
2018-09-14T13:38:40.525Z,61.36
2018-09-14T13:41:08.791Z,61.33
2018-09-14T13:43:37.039Z,61.68
2018-09-14T13:46:05.318Z,61.27
2018-09-14T13:48:33.587Z,61.33
2018-09-14T13:51:01.938Z,61.52
2018-09-14T13:53:30.175Z,61.60
2018-09-14T13:55:58.552Z,61.16
2018-09-14T13:58:26.845Z,61.10
2018-09-14T14:00:55.111Z,61.14
2018-09-14T14:03:23.389Z,61.13
2018-09-14T14:05:51.634Z,61.55
2018-09-14T14:08:19.900Z,61.48
2018-09-14T14:10:48.183Z,61.59
2018-09-14T14:13:16.435Z,61.18
2018-09-14T14:15:44.675Z,61.62
2018-09-14T14:18:12.894Z,61.69
2018-09-14T14:20:41.203Z,61.55
2018-09-14T14:23:09.485Z,61.53
2018-09-14T14:25:37.717Z,61.78
2018-09-14T14:28:06.023Z,61.51
2018-09-14T14:30:34.363Z,62.02
2018-09-14T14:33:02.628Z,61.62
2018-09-14T14:35:30.855Z,62.19
2018-09-14T14:37:59.193Z,61.72
2018-09-14T14:40:27.467Z,61.83
2018-09-14T14:42:55.699Z,62.18
2018-09-14T14:45:23.934Z,62.32
2018-09-14T14:47:52.209Z,61.84
2018-09-14T14:52:43.086Z,62.03
2018-09-14T14:55:11.347Z,62.10
2018-09-14T14:57:39.610Z,62.03
2018-09-14T15:00:07.925Z,62.43
2018-09-14T15:02:36.189Z,62.14
2018-09-14T15:05:04.486Z,62.21
2018-09-14T15:07:32.888Z,62.24
2018-09-14T15:10:01.191Z,62.47
2018-09-14T15:12:29.490Z,62.56
2018-09-14T15:14:57.674Z,62.51
2018-09-14T15:17:25.992Z,62.12
2018-09-14T15:19:54.265Z,62.15
2018-09-14T15:22:22.526Z,62.33
2018-09-14T15:24:50.779Z,62.29
2018-09-14T15:27:19.008Z,62.07
2018-09-14T15:29:47.297Z,62.53
2018-09-14T15:32:15.593Z,62.51
2018-09-14T15:34:43.803Z,62.16
2018-09-14T15:37:12.125Z,62.64
2018-09-14T15:39:40.385Z,62.66
2018-09-14T15:42:08.641Z,62.29
2018-09-14T15:44:36.931Z,62.42
2018-09-14T15:47:05.221Z,63.09
2018-09-14T15:49:33.468Z,62.94
2018-09-14T15:52:01.674Z,62.97
2018-09-14T15:54:29.956Z,62.66
2018-09-14T15:56:58.242Z,62.81
2018-09-14T15:59:26.480Z,62.93
2018-09-14T16:01:54.873Z,62.94
2018-09-14T16:04:23.185Z,62.89
2018-09-14T16:06:51.492Z,62.54
2018-09-14T16:09:19.777Z,62.61
2018-09-14T16:11:48.081Z,62.71
2018-09-14T16:14:16.384Z,62.77
2018-09-14T16:16:44.619Z,62.66
2018-09-14T16:19:12.907Z,62.98
2018-09-14T16:21:41.209Z,62.94
2018-09-14T16:24:09.526Z,63.26
2018-09-14T16:26:37.747Z,63.49
2018-09-14T16:29:06.012Z,63.20
2018-09-14T16:31:34.667Z,63.52
2018-09-14T16:34:02.958Z,63.57
2018-09-14T16:36:31.279Z,63.34
2018-09-14T16:38:59.618Z,63.40
2018-09-14T16:41:27.901Z,63.88
2018-09-14T16:43:56.160Z,64.07
2018-09-14T16:46:24.426Z,64.13
2018-09-14T16:48:52.653Z,63.49
2018-09-14T16:51:20.910Z,63.78
2018-09-14T16:53:49.150Z,63.87
2018-09-14T16:56:17.383Z,63.96
2018-09-14T16:58:45.586Z,64.12
2018-09-14T17:01:13.850Z,63.72
2018-09-14T17:03:42.236Z,63.34
2018-09-14T17:06:10.526Z,63.52
2018-09-14T17:08:38.837Z,63.39
2018-09-14T17:11:07.121Z,62.95
2018-09-14T17:13:35.308Z,62.90
2018-09-14T17:16:03.552Z,62.71
2018-09-14T17:18:31.837Z,63.10
2018-09-14T17:21:00.102Z,62.65
2018-09-14T17:23:28.357Z,62.59
2018-09-14T17:25:56.570Z,62.84
2018-09-14T17:28:24.982Z,62.63
2018-09-14T17:30:53.279Z,63.04
2018-09-14T17:33:21.623Z,62.75
2018-09-14T17:35:49.845Z,62.48
2018-09-14T17:38:18.117Z,62.50
2018-09-14T17:40:46.389Z,62.88
2018-09-14T17:43:14.630Z,62.56
2018-09-14T17:45:42.894Z,62.69
2018-09-14T17:48:11.145Z,62.38
2018-09-14T17:50:39.406Z,62.46
2018-09-14T17:53:07.628Z,62.43
2018-09-14T17:55:35.842Z,62.93
2018-09-14T17:58:04.085Z,62.79
2018-09-14T18:00:32.350Z,62.76
2018-09-14T18:03:00.596Z,62.77
2018-09-14T18:05:28.856Z,62.46
2018-09-14T18:07:57.072Z,62.79
2018-09-14T18:10:25.330Z,62.79
2018-09-14T18:12:53.624Z,62.81
2018-09-14T18:15:21.875Z,62.46
2018-09-14T18:17:50.166Z,62.41
2018-09-14T18:20:18.414Z,62.73
2018-09-14T18:22:46.685Z,62.33
2018-09-14T18:25:15.523Z,62.45
2018-09-14T18:27:43.795Z,62.76
2018-09-14T18:30:12.014Z,62.71
2018-09-14T18:32:40.249Z,62.59
2018-09-14T18:35:08.483Z,62.73
2018-09-14T18:37:36.769Z,62.73
2018-09-14T18:40:05.146Z,62.61
2018-09-14T18:42:33.454Z,62.71
2018-09-14T18:45:01.710Z,62.60
2018-09-14T18:47:30.019Z,62.73
2018-09-14T18:49:58.362Z,62.61
2018-09-14T18:52:26.692Z,62.22
2018-09-14T18:54:55.087Z,62.55
2018-09-14T18:57:23.392Z,62.62
2018-09-14T18:59:51.676Z,62.33
2018-09-14T19:02:19.890Z,62.15
2018-09-14T19:04:48.177Z,62.21
2018-09-14T19:07:16.473Z,62.43
2018-09-14T19:09:44.745Z,62.21
2018-09-14T19:12:13.081Z,62.15
2018-09-14T19:14:41.442Z,62.18
2018-09-14T19:17:09.763Z,62.17
2018-09-14T19:19:38.055Z,62.22
2018-09-14T19:22:06.433Z,62.11
2018-09-14T19:24:34.767Z,62.11
2018-09-14T19:27:03.065Z,62.22
2018-09-14T19:29:31.333Z,62.15
2018-09-14T19:31:59.604Z,62.32
2018-09-14T19:34:27.912Z,62.30
2018-09-14T19:36:56.177Z,62.24
2018-09-14T19:39:24.451Z,62.02
2018-09-14T19:41:52.661Z,62.02
2018-09-14T19:44:21.012Z,62.29
2018-09-14T19:46:49.275Z,61.99
2018-09-14T19:49:17.601Z,62.33
2018-09-14T19:51:45.895Z,61.96
2018-09-14T19:54:14.189Z,61.93
2018-09-14T19:56:42.467Z,62.24
2018-09-14T19:59:10.737Z,61.95
2018-09-14T20:01:39.018Z,61.99
2018-09-14T20:04:07.243Z,62.34
2018-09-14T20:06:35.522Z,62.66
2018-09-14T20:09:05.030Z,62.47
2018-09-14T20:11:33.288Z,62.95
2018-09-14T20:14:01.552Z,62.54
2018-09-14T20:16:29.852Z,62.55
2018-09-14T20:18:58.143Z,62.78
2018-09-14T20:21:26.486Z,62.39
2018-09-14T20:23:54.806Z,62.37
2018-09-14T20:26:23.087Z,62.35
2018-09-14T20:28:51.381Z,62.38
2018-09-14T20:31:19.613Z,62.76
2018-09-14T20:33:47.874Z,62.18
2018-09-14T20:36:16.119Z,62.59
2018-09-14T20:38:44.361Z,62.21
2018-09-14T20:41:12.692Z,62.59
2018-09-14T20:43:41.097Z,62.61
2018-09-14T20:46:09.317Z,62.43
2018-09-14T20:48:37.657Z,62.41
2018-09-14T20:51:05.923Z,62.43
2018-09-14T20:53:34.213Z,61.98
2018-09-14T20:56:02.487Z,62.37
2018-09-14T20:58:30.708Z,62.00
2018-09-14T21:00:58.910Z,61.98
2018-09-14T21:03:27.136Z,62.39
2018-09-14T21:05:55.484Z,62.40
2018-09-14T21:08:23.701Z,62.17
2018-09-14T21:10:51.991Z,61.86
2018-09-14T21:13:20.227Z,62.33
2018-09-14T21:15:48.464Z,61.92
2018-09-14T21:18:16.680Z,62.25
2018-09-14T21:20:44.925Z,62.39
2018-09-14T21:23:13.185Z,61.98
2018-09-14T21:25:41.452Z,61.99
2018-09-14T21:28:09.712Z,62.04
2018-09-14T21:30:37.991Z,61.98
2018-09-14T21:33:06.313Z,62.17
2018-09-14T21:35:34.580Z,62.00
2018-09-14T21:38:02.856Z,62.35
2018-09-14T21:40:31.233Z,62.34
2018-09-14T21:42:59.448Z,62.50
2018-09-14T21:45:27.694Z,62.45
2018-09-14T21:47:55.975Z,62.40
2018-09-14T21:50:24.215Z,62.39
2018-09-14T21:52:52.480Z,62.38
2018-09-14T21:55:20.809Z,62.03
2018-09-14T21:57:49.095Z,62.01
2018-09-14T22:00:22.911Z,61.94
2018-09-14T22:02:51.230Z,62.12
2018-09-14T22:05:19.519Z,62.22
2018-09-14T22:07:47.832Z,61.99
2018-09-14T22:10:16.112Z,61.94
2018-09-14T22:12:44.356Z,61.90
2018-09-14T22:15:12.611Z,62.29
2018-09-14T22:17:40.997Z,61.81
2018-09-14T22:20:09.339Z,62.16
2018-09-14T22:22:37.582Z,62.11
2018-09-14T22:25:05.947Z,62.18
2018-09-14T22:27:34.267Z,62.06
2018-09-14T22:30:02.837Z,61.68
2018-09-14T22:32:31.132Z,61.78
2018-09-14T22:34:59.434Z,61.70
2018-09-14T22:37:27.699Z,61.88
2018-09-14T22:39:56.060Z,61.80
2018-09-14T22:42:24.313Z,61.57
2018-09-14T22:44:52.539Z,61.91
2018-09-14T22:47:20.763Z,61.87
2018-09-14T22:49:48.975Z,61.92
2018-09-14T22:52:17.211Z,61.92
2018-09-14T22:54:45.435Z,61.89
2018-09-14T22:57:13.704Z,61.70
2018-09-14T22:59:41.959Z,61.86
2018-09-14T23:02:10.142Z,61.42
2018-09-14T23:04:38.429Z,61.78
2018-09-14T23:07:06.795Z,61.66
2018-09-14T23:09:35.103Z,61.40
2018-09-14T23:12:03.509Z,61.19
2018-09-14T23:14:31.738Z,61.22
2018-09-14T23:16:59.974Z,61.46
2018-09-14T23:19:28.273Z,61.12
2018-09-14T23:21:56.542Z,61.42
2018-09-14T23:24:25.480Z,61.09
2018-09-14T23:26:53.770Z,61.39
2018-09-14T23:29:22.022Z,61.05
2018-09-14T23:31:50.282Z,60.94
2018-09-14T23:34:18.546Z,61.23
2018-09-14T23:36:46.825Z,61.24
2018-09-14T23:39:15.102Z,61.31
2018-09-14T23:41:43.321Z,61.22
2018-09-14T23:44:11.533Z,60.80
2018-09-14T23:46:39.773Z,60.80
2018-09-14T23:49:08.185Z,61.20
2018-09-14T23:51:36.429Z,61.08
2018-09-14T23:54:04.654Z,60.79
2018-09-14T23:56:32.906Z,61.09
2018-09-14T23:59:01.183Z,61.10
